sensor_id;sensor_type;location;lat;lon;timestamp;pressure;altitude;pressure_sealevel;temperature;humidity
41706;BME280;27385;51.096;17.190;2023-08-01T00:00:21;99297.30;;;19.59;67.61
41706;BME280;27385;51.096;17.190;2023-08-01T00:03:11;99295.88;;;19.59;67.63
41706;BME280;27385;51.096;17.190;2023-08-01T00:05:42;99293.41;;;19.59;67.73
41706;BME280;27385;51.096;17.190;2023-08-01T00:08:14;99290.70;;;19.58;67.67
41706;BME280;27385;51.096;17.190;2023-08-01T00:10:45;99283.73;;;19.58;67.74
41706;BME280;27385;51.096;17.190;2023-08-01T00:13:15;99279.33;;;19.58;67.69
41706;BME280;27385;51.096;17.190;2023-08-01T00:15:46;99277.55;;;19.56;67.72
41706;BME280;27385;51.096;17.190;2023-08-01T00:18:17;99275.89;;;19.55;67.79
41706;BME280;27385;51.096;17.190;2023-08-01T00:20:48;99271.36;;;19.56;67.90
41706;BME280;27385;51.096;17.190;2023-08-01T00:23:19;99272.31;;;19.57;67.93
41706;BME280;27385;51.096;17.190;2023-08-01T00:25:50;99267.36;;;19.57;67.86
41706;BME280;27385;51.096;17.190;2023-08-01T00:28:21;99262.41;;;19.57;67.91
41706;BME280;27385;51.096;17.190;2023-08-01T00:31:00;99260.23;;;19.57;67.97
41706;BME280;27385;51.096;17.190;2023-08-01T00:33:32;99256.15;;;19.56;67.94
41706;BME280;27385;51.096;17.190;2023-08-01T00:36:03;99253.96;;;19.55;67.98
41706;BME280;27385;51.096;17.190;2023-08-01T00:38:38;99248.29;;;19.55;67.98
41706;BME280;27385;51.096;17.190;2023-08-01T00:41:10;99242.71;;;19.54;68.05
41706;BME280;27385;51.096;17.190;2023-08-01T00:43:41;99236.70;;;19.54;68.05
41706;BME280;27385;51.096;17.190;2023-08-01T00:46:12;99228.66;;;19.52;68.07
41706;BME280;27385;51.096;17.190;2023-08-01T00:48:43;99233.91;;;19.51;68.16
41706;BME280;27385;51.096;17.190;2023-08-01T00:51:14;99227.98;;;19.50;68.17
41706;BME280;27385;51.096;17.190;2023-08-01T00:53:47;99222.02;;;19.46;68.18
41706;BME280;27385;51.096;17.190;2023-08-01T00:56:18;99219.98;;;19.44;68.31
41706;BME280;27385;51.096;17.190;2023-08-01T00:58:49;99214.65;;;19.39;68.35
41706;BME280;27385;51.096;17.190;2023-08-01T01:01:20;99212.98;;;19.34;68.43
41706;BME280;27385;51.096;17.190;2023-08-01T01:03:52;99210.36;;;19.32;68.53
41706;BME280;27385;51.096;17.190;2023-08-01T01:06:27;99206.09;;;19.31;68.59
41706;BME280;27385;51.096;17.190;2023-08-01T01:08:58;99203.18;;;19.27;68.65
41706;BME280;27385;51.096;17.190;2023-08-01T01:11:29;99198.39;;;19.25;68.56
41706;BME280;27385;51.096;17.190;2023-08-01T01:14:00;99184.99;;;19.23;68.61
41706;BME280;27385;51.096;17.190;2023-08-01T01:16:31;99184.04;;;19.20;68.65
41706;BME280;27385;51.096;17.190;2023-08-01T01:19:06;99177.36;;;19.18;68.67
41706;BME280;27385;51.096;17.190;2023-08-01T01:21:39;99171.19;;;19.18;68.74
41706;BME280;27385;51.096;17.190;2023-08-01T01:24:29;99169.96;;;19.11;68.73
41706;BME280;27385;51.096;17.190;2023-08-01T01:27:01;99162.90;;;19.06;68.80
41706;BME280;27385;51.096;17.190;2023-08-01T01:29:34;99159.34;;;19.03;68.88
41706;BME280;27385;51.096;17.190;2023-08-01T01:32:06;99155.20;;;19.01;68.93
41706;BME280;27385;51.096;17.190;2023-08-01T01:34:37;99153.42;;;19.01;68.92
41706;BME280;27385;51.096;17.190;2023-08-01T01:37:08;99153.69;;;18.99;68.94
41706;BME280;27385;51.096;17.190;2023-08-01T01:39:39;99151.20;;;18.96;68.98
41706;BME280;27385;51.096;17.190;2023-08-01T01:42:10;99148.48;;;18.95;69.05
41706;BME280;27385;51.096;17.190;2023-08-01T01:44:42;99141.68;;;18.93;69.08
41706;BME280;27385;51.096;17.190;2023-08-01T01:47:13;99137.80;;;18.92;69.04
41706;BME280;27385;51.096;17.190;2023-08-01T01:49:44;99136.64;;;18.91;69.13
41706;BME280;27385;51.096;17.190;2023-08-01T01:52:15;99133.23;;;18.89;69.18
41706;BME280;27385;51.096;17.190;2023-08-01T01:54:46;99128.33;;;18.88;69.06
41706;BME280;27385;51.096;17.190;2023-08-01T01:57:17;99123.99;;;18.87;69.20
41706;BME280;27385;51.096;17.190;2023-08-01T01:59:48;99119.53;;;18.82;69.17
41706;BME280;27385;51.096;17.190;2023-08-01T02:02:19;99114.94;;;18.81;69.29
41706;BME280;27385;51.096;17.190;2023-08-01T02:04:51;99113.58;;;18.79;69.29
41706;BME280;27385;51.096;17.190;2023-08-01T02:07:22;99108.13;;;18.75;69.37
41706;BME280;27385;51.096;17.190;2023-08-01T02:09:53;99104.17;;;18.72;69.42
41706;BME280;27385;51.096;17.190;2023-08-01T02:12:24;99100.40;;;18.68;69.48
41706;BME280;27385;51.096;17.190;2023-08-01T02:14:54;99096.17;;;18.67;69.61
41706;BME280;27385;51.096;17.190;2023-08-01T02:17:25;99094.59;;;18.66;69.61
41706;BME280;27385;51.096;17.190;2023-08-01T02:19:56;99090.78;;;18.66;69.71
41706;BME280;27385;51.096;17.190;2023-08-01T02:22:27;99087.24;;;18.66;69.77
41706;BME280;27385;51.096;17.190;2023-08-01T02:24:58;99081.27;;;18.66;69.85
41706;BME280;27385;51.096;17.190;2023-08-01T02:27:28;99075.81;;;18.65;69.81
41706;BME280;27385;51.096;17.190;2023-08-01T02:29:59;99074.57;;;18.65;69.72
41706;BME280;27385;51.096;17.190;2023-08-01T02:32:30;99074.27;;;18.65;69.82
41706;BME280;27385;51.096;17.190;2023-08-01T02:35:01;99075.14;;;18.64;69.77
41706;BME280;27385;51.096;17.190;2023-08-01T02:37:32;99070.91;;;18.63;69.82
41706;BME280;27385;51.096;17.190;2023-08-01T02:40:04;99075.62;;;18.61;69.86
41706;BME280;27385;51.096;17.190;2023-08-01T02:42:36;99074.55;;;18.59;70.01
41706;BME280;27385;51.096;17.190;2023-08-01T02:45:08;99068.93;;;18.56;70.12
41706;BME280;27385;51.096;17.190;2023-08-01T02:47:39;99064.41;;;18.55;70.37
41706;BME280;27385;51.096;17.190;2023-08-01T02:50:10;99062.30;;;18.53;70.59
41706;BME280;27385;51.096;17.190;2023-08-01T02:52:41;99059.51;;;18.51;70.81
41706;BME280;27385;51.096;17.190;2023-08-01T02:55:12;99060.27;;;18.50;70.86
41706;BME280;27385;51.096;17.190;2023-08-01T02:57:43;99059.80;;;18.48;70.98
41706;BME280;27385;51.096;17.190;2023-08-01T03:00:14;99056.14;;;18.48;71.39
41706;BME280;27385;51.096;17.190;2023-08-01T03:02:46;99056.86;;;18.48;71.45
41706;BME280;27385;51.096;17.190;2023-08-01T03:05:18;99052.53;;;18.47;71.67
41706;BME280;27385;51.096;17.190;2023-08-01T03:07:48;99052.98;;;18.46;72.05
41706;BME280;27385;51.096;17.190;2023-08-01T03:10:19;99053.92;;;18.44;72.20
41706;BME280;27385;51.096;17.190;2023-08-01T03:12:50;99045.52;;;18.42;72.25
41706;BME280;27385;51.096;17.190;2023-08-01T03:15:21;99050.54;;;18.42;72.41
41706;BME280;27385;51.096;17.190;2023-08-01T03:17:52;99045.50;;;18.39;72.54
41706;BME280;27385;51.096;17.190;2023-08-01T03:20:23;99042.57;;;18.38;72.50
41706;BME280;27385;51.096;17.190;2023-08-01T03:22:53;99040.20;;;18.38;72.58
41706;BME280;27385;51.096;17.190;2023-08-01T03:25:24;99043.84;;;18.37;72.93
41706;BME280;27385;51.096;17.190;2023-08-01T03:27:55;99050.31;;;18.32;73.00
41706;BME280;27385;51.096;17.190;2023-08-01T03:30:27;99043.59;;;18.30;73.22
41706;BME280;27385;51.096;17.190;2023-08-01T03:32:59;99041.30;;;18.27;73.54
41706;BME280;27385;51.096;17.190;2023-08-01T03:35:30;99043.52;;;18.24;73.58
41706;BME280;27385;51.096;17.190;2023-08-01T03:38:01;99040.88;;;18.24;73.65
41706;BME280;27385;51.096;17.190;2023-08-01T03:40:32;99039.90;;;18.22;73.79
41706;BME280;27385;51.096;17.190;2023-08-01T03:43:03;99035.92;;;18.21;73.83
41706;BME280;27385;51.096;17.190;2023-08-01T03:45:34;99024.92;;;18.18;73.89
41706;BME280;27385;51.096;17.190;2023-08-01T03:48:05;99015.52;;;18.15;74.02
41706;BME280;27385;51.096;17.190;2023-08-01T03:50:36;99008.61;;;18.14;74.31
41706;BME280;27385;51.096;17.190;2023-08-01T03:53:07;99007.21;;;18.13;74.33
41706;BME280;27385;51.096;17.190;2023-08-01T03:55:38;99010.55;;;18.11;74.35
41706;BME280;27385;51.096;17.190;2023-08-01T03:58:09;99011.12;;;18.11;74.52
41706;BME280;27385;51.096;17.190;2023-08-01T04:00:39;99008.34;;;18.11;74.67
41706;BME280;27385;51.096;17.190;2023-08-01T04:03:10;99010.23;;;18.12;74.73
41706;BME280;27385;51.096;17.190;2023-08-01T04:05:41;99013.35;;;18.11;74.94
41706;BME280;27385;51.096;17.190;2023-08-01T04:08:12;99015.38;;;18.10;75.05
41706;BME280;27385;51.096;17.190;2023-08-01T04:10:43;99019.17;;;18.08;75.21
41706;BME280;27385;51.096;17.190;2023-08-01T04:13:13;99021.24;;;18.08;75.44
41706;BME280;27385;51.096;17.190;2023-08-01T04:15:44;99026.44;;;18.07;75.85
41706;BME280;27385;51.096;17.190;2023-08-01T04:18:15;99027.08;;;18.07;75.94
41706;BME280;27385;51.096;17.190;2023-08-01T04:20:47;99024.82;;;18.05;76.20
41706;BME280;27385;51.096;17.190;2023-08-01T04:23:18;99027.40;;;18.03;76.40
41706;BME280;27385;51.096;17.190;2023-08-01T04:25:48;99024.39;;;18.02;76.84
41706;BME280;27385;51.096;17.190;2023-08-01T04:28:19;99022.57;;;17.99;76.81
41706;BME280;27385;51.096;17.190;2023-08-01T04:30:53;99025.95;;;17.96;77.20
41706;BME280;27385;51.096;17.190;2023-08-01T04:33:24;99023.94;;;17.93;77.39
41706;BME280;27385;51.096;17.190;2023-08-01T04:35:54;99019.64;;;17.91;77.70
41706;BME280;27385;51.096;17.190;2023-08-01T04:38:25;99020.27;;;17.89;77.92
41706;BME280;27385;51.096;17.190;2023-08-01T04:40:56;99020.83;;;17.86;78.33
41706;BME280;27385;51.096;17.190;2023-08-01T04:43:27;99016.95;;;17.84;78.76
41706;BME280;27385;51.096;17.190;2023-08-01T04:45:58;99021.79;;;17.83;79.08
41706;BME280;27385;51.096;17.190;2023-08-01T04:48:29;99020.39;;;17.80;79.18
41706;BME280;27385;51.096;17.190;2023-08-01T04:51:00;99017.56;;;17.78;79.68
41706;BME280;27385;51.096;17.190;2023-08-01T04:53:31;99014.09;;;17.77;79.82
41706;BME280;27385;51.096;17.190;2023-08-01T04:56:01;99012.36;;;17.78;80.07
41706;BME280;27385;51.096;17.190;2023-08-01T04:58:32;99010.05;;;17.76;80.50
41706;BME280;27385;51.096;17.190;2023-08-01T05:01:03;99001.47;;;17.74;80.82
41706;BME280;27385;51.096;17.190;2023-08-01T05:03:34;99000.45;;;17.72;81.05
41706;BME280;27385;51.096;17.190;2023-08-01T05:06:05;98999.16;;;17.71;81.33
41706;BME280;27385;51.096;17.190;2023-08-01T05:08:36;99001.70;;;17.69;81.64
41706;BME280;27385;51.096;17.190;2023-08-01T05:11:07;98997.98;;;17.69;81.78
41706;BME280;27385;51.096;17.190;2023-08-01T05:13:38;98999.76;;;17.68;82.14
41706;BME280;27385;51.096;17.190;2023-08-01T05:16:08;98999.40;;;17.67;82.37
41706;BME280;27385;51.096;17.190;2023-08-01T05:18:39;99002.61;;;17.67;82.46
41706;BME280;27385;51.096;17.190;2023-08-01T05:21:10;98995.69;;;17.66;82.84
41706;BME280;27385;51.096;17.190;2023-08-01T05:23:41;98995.39;;;17.67;83.15
41706;BME280;27385;51.096;17.190;2023-08-01T05:26:12;98994.58;;;17.66;83.44
41706;BME280;27385;51.096;17.190;2023-08-01T05:28:42;98991.65;;;17.64;83.66
41706;BME280;27385;51.096;17.190;2023-08-01T05:31:13;98986.68;;;17.64;83.88
41706;BME280;27385;51.096;17.190;2023-08-01T05:33:44;98984.04;;;17.63;84.12
41706;BME280;27385;51.096;17.190;2023-08-01T05:36:15;98981.25;;;17.63;84.29
41706;BME280;27385;51.096;17.190;2023-08-01T05:38:46;98979.19;;;17.65;84.64
41706;BME280;27385;51.096;17.190;2023-08-01T05:41:17;98984.27;;;17.66;84.89
41706;BME280;27385;51.096;17.190;2023-08-01T05:43:48;98976.41;;;17.66;85.13
41706;BME280;27385;51.096;17.190;2023-08-01T05:46:19;98977.60;;;17.65;85.33
41706;BME280;27385;51.096;17.190;2023-08-01T05:48:50;98977.04;;;17.65;85.61
41706;BME280;27385;51.096;17.190;2023-08-01T05:51:21;98977.34;;;17.64;85.80
41706;BME280;27385;51.096;17.190;2023-08-01T05:53:51;98979.82;;;17.63;86.16
41706;BME280;27385;51.096;17.190;2023-08-01T05:56:23;98981.09;;;17.63;86.67
41706;BME280;27385;51.096;17.190;2023-08-01T05:58:53;98976.59;;;17.63;86.85
41706;BME280;27385;51.096;17.190;2023-08-01T06:01:24;98976.02;;;17.63;87.05
41706;BME280;27385;51.096;17.190;2023-08-01T06:03:55;98978.80;;;17.61;87.24
41706;BME280;27385;51.096;17.190;2023-08-01T06:06:26;98976.38;;;17.61;87.31
41706;BME280;27385;51.096;17.190;2023-08-01T06:08:57;98972.10;;;17.62;87.66
41706;BME280;27385;51.096;17.190;2023-08-01T06:11:28;98969.29;;;17.62;87.74
41706;BME280;27385;51.096;17.190;2023-08-01T06:13:59;98968.27;;;17.63;87.98
41706;BME280;27385;51.096;17.190;2023-08-01T06:16:30;98972.11;;;17.64;88.35
41706;BME280;27385;51.096;17.190;2023-08-01T06:19:01;98966.02;;;17.63;88.85
41706;BME280;27385;51.096;17.190;2023-08-01T06:21:32;98959.13;;;17.64;89.06
41706;BME280;27385;51.096;17.190;2023-08-01T06:24:03;98957.35;;;17.64;89.35
41706;BME280;27385;51.096;17.190;2023-08-01T06:26:34;98952.77;;;17.65;89.39
41706;BME280;27385;51.096;17.190;2023-08-01T06:29:04;98949.77;;;17.68;89.36
41706;BME280;27385;51.096;17.190;2023-08-01T06:31:35;98948.95;;;17.68;89.49
41706;BME280;27385;51.096;17.190;2023-08-01T06:34:06;98948.73;;;17.68;89.64
41706;BME280;27385;51.096;17.190;2023-08-01T06:36:37;98946.73;;;17.70;90.02
41706;BME280;27385;51.096;17.190;2023-08-01T06:39:08;98939.65;;;17.70;90.12
41706;BME280;27385;51.096;17.190;2023-08-01T06:41:39;98939.24;;;17.71;90.21
41706;BME280;27385;51.096;17.190;2023-08-01T06:44:10;98941.82;;;17.73;90.30
41706;BME280;27385;51.096;17.190;2023-08-01T06:46:41;98934.40;;;17.74;90.53
41706;BME280;27385;51.096;17.190;2023-08-01T06:49:12;98927.48;;;17.74;90.56
41706;BME280;27385;51.096;17.190;2023-08-01T06:51:43;98923.41;;;17.71;90.67
41706;BME280;27385;51.096;17.190;2023-08-01T06:54:14;98914.15;;;17.68;90.66
41706;BME280;27385;51.096;17.190;2023-08-01T06:56:45;98912.64;;;17.69;90.98
41706;BME280;27385;51.096;17.190;2023-08-01T06:59:17;98912.75;;;17.68;91.19
41706;BME280;27385;51.096;17.190;2023-08-01T07:01:48;98913.09;;;17.68;91.27
41706;BME280;27385;51.096;17.190;2023-08-01T07:04:19;98915.16;;;17.69;91.48
41706;BME280;27385;51.096;17.190;2023-08-01T07:06:50;98907.02;;;17.69;91.55
41706;BME280;27385;51.096;17.190;2023-08-01T07:09:20;98908.02;;;17.69;91.68
41706;BME280;27385;51.096;17.190;2023-08-01T07:11:51;98906.91;;;17.68;91.73
41706;BME280;27385;51.096;17.190;2023-08-01T07:14:22;98909.55;;;17.67;91.83
41706;BME280;27385;51.096;17.190;2023-08-01T07:16:53;98913.42;;;17.68;91.87
41706;BME280;27385;51.096;17.190;2023-08-01T07:19:24;98908.20;;;17.70;92.18
41706;BME280;27385;51.096;17.190;2023-08-01T07:21:55;98906.20;;;17.71;92.30
41706;BME280;27385;51.096;17.190;2023-08-01T07:24:26;98899.59;;;17.72;92.62
41706;BME280;27385;51.096;17.190;2023-08-01T07:26:56;98897.70;;;17.75;92.76
41706;BME280;27385;51.096;17.190;2023-08-01T07:29:27;98897.83;;;17.76;92.89
41706;BME280;27385;51.096;17.190;2023-08-01T07:31:58;98899.19;;;17.77;92.88
41706;BME280;27385;51.096;17.190;2023-08-01T07:34:29;98893.92;;;17.80;92.97
41706;BME280;27385;51.096;17.190;2023-08-01T07:37:00;98891.24;;;17.83;93.22
41706;BME280;27385;51.096;17.190;2023-08-01T07:39:31;98896.58;;;17.87;93.13
41706;BME280;27385;51.096;17.190;2023-08-01T07:42:04;98893.29;;;17.91;93.29
41706;BME280;27385;51.096;17.190;2023-08-01T07:44:35;98894.89;;;17.95;93.49
41706;BME280;27385;51.096;17.190;2023-08-01T07:47:06;98891.58;;;17.98;93.55
41706;BME280;27385;51.096;17.190;2023-08-01T07:49:37;98885.80;;;18.03;93.75
41706;BME280;27385;51.096;17.190;2023-08-01T07:52:08;98884.83;;;18.07;94.00
41706;BME280;27385;51.096;17.190;2023-08-01T07:54:39;98875.48;;;18.13;94.18
41706;BME280;27385;51.096;17.190;2023-08-01T07:57:10;98872.66;;;18.21;94.39
41706;BME280;27385;51.096;17.190;2023-08-01T07:59:41;98877.70;;;18.28;94.54
41706;BME280;27385;51.096;17.190;2023-08-01T08:02:12;98873.18;;;18.37;94.83
41706;BME280;27385;51.096;17.190;2023-08-01T08:04:43;98867.55;;;18.46;94.88
41706;BME280;27385;51.096;17.190;2023-08-01T08:07:14;98868.42;;;18.57;95.26
41706;BME280;27385;51.096;17.190;2023-08-01T08:09:45;98866.45;;;18.65;95.34
41706;BME280;27385;51.096;17.190;2023-08-01T08:12:16;98863.45;;;18.72;95.20
41706;BME280;27385;51.096;17.190;2023-08-01T08:14:47;98854.03;;;18.80;95.20
41706;BME280;27385;51.096;17.190;2023-08-01T08:17:18;98850.42;;;18.87;94.86
41706;BME280;27385;51.096;17.190;2023-08-01T08:19:49;98846.97;;;18.90;94.45
41706;BME280;27385;51.096;17.190;2023-08-01T08:22:19;98844.59;;;18.91;94.62
41706;BME280;27385;51.096;17.190;2023-08-01T08:24:51;98842.66;;;18.92;94.51
41706;BME280;27385;51.096;17.190;2023-08-01T08:27:23;98835.50;;;18.94;94.85
41706;BME280;27385;51.096;17.190;2023-08-01T08:29:54;98827.27;;;18.97;95.14
41706;BME280;27385;51.096;17.190;2023-08-01T08:32:25;98819.33;;;19.03;95.07
41706;BME280;27385;51.096;17.190;2023-08-01T08:34:55;98814.52;;;19.09;95.21
41706;BME280;27385;51.096;17.190;2023-08-01T08:37:26;98816.68;;;19.14;95.01
41706;BME280;27385;51.096;17.190;2023-08-01T08:39:58;98812.76;;;19.18;94.58
41706;BME280;27385;51.096;17.190;2023-08-01T08:42:29;98808.34;;;19.16;94.21
41706;BME280;27385;51.096;17.190;2023-08-01T08:45:02;98803.67;;;19.14;94.15
41706;BME280;27385;51.096;17.190;2023-08-01T08:47:38;98803.70;;;19.12;94.19
41706;BME280;27385;51.096;17.190;2023-08-01T08:50:12;98801.77;;;19.10;94.31
41706;BME280;27385;51.096;17.190;2023-08-01T08:52:44;98806.90;;;19.08;94.62
41706;BME280;27385;51.096;17.190;2023-08-01T08:55:16;98807.66;;;19.07;94.54
41706;BME280;27385;51.096;17.190;2023-08-01T08:57:51;98809.02;;;19.05;94.48
41706;BME280;27385;51.096;17.190;2023-08-01T09:00:23;98809.44;;;19.05;94.61
41706;BME280;27385;51.096;17.190;2023-08-01T09:02:54;98810.37;;;19.02;94.42
41706;BME280;27385;51.096;17.190;2023-08-01T09:05:29;98807.91;;;19.00;94.36
41706;BME280;27385;51.096;17.190;2023-08-01T09:08:06;98803.73;;;19.02;94.68
41706;BME280;27385;51.096;17.190;2023-08-01T09:10:38;98794.40;;;19.04;94.85
41706;BME280;27385;51.096;17.190;2023-08-01T09:13:10;98797.22;;;19.07;94.61
41706;BME280;27385;51.096;17.190;2023-08-01T09:15:42;98796.54;;;19.09;94.48
41706;BME280;27385;51.096;17.190;2023-08-01T09:18:13;98792.59;;;19.12;94.74
41706;BME280;27385;51.096;17.190;2023-08-01T09:20:48;98795.80;;;19.13;94.60
41706;BME280;27385;51.096;17.190;2023-08-01T09:23:20;98796.13;;;19.15;94.62
41706;BME280;27385;51.096;17.190;2023-08-01T09:25:51;98795.86;;;19.15;94.77
41706;BME280;27385;51.096;17.190;2023-08-01T09:28:23;98799.86;;;19.16;94.37
41706;BME280;27385;51.096;17.190;2023-08-01T09:30:56;98799.81;;;19.17;94.32
41706;BME280;27385;51.096;17.190;2023-08-01T09:33:39;98796.19;;;19.18;94.27
41706;BME280;27385;51.096;17.190;2023-08-01T09:36:10;98792.67;;;19.18;94.35
41706;BME280;27385;51.096;17.190;2023-08-01T09:38:51;98793.36;;;19.18;94.26
41706;BME280;27385;51.096;17.190;2023-08-01T09:41:22;98796.94;;;19.17;94.38
41706;BME280;27385;51.096;17.190;2023-08-01T09:43:53;98793.09;;;19.18;94.52
41706;BME280;27385;51.096;17.190;2023-08-01T09:46:24;98792.15;;;19.17;94.19
41706;BME280;27385;51.096;17.190;2023-08-01T09:48:55;98787.96;;;19.17;94.55
41706;BME280;27385;51.096;17.190;2023-08-01T09:51:26;98784.64;;;19.16;94.56
41706;BME280;27385;51.096;17.190;2023-08-01T09:53:57;98781.44;;;19.17;94.72
41706;BME280;27385;51.096;17.190;2023-08-01T09:56:28;98776.21;;;19.14;94.56
41706;BME280;27385;51.096;17.190;2023-08-01T09:59:01;98770.36;;;19.12;94.49
41706;BME280;27385;51.096;17.190;2023-08-01T10:01:33;98768.23;;;19.13;94.50
41706;BME280;27385;51.096;17.190;2023-08-01T10:04:04;98767.68;;;19.12;94.37
41706;BME280;27385;51.096;17.190;2023-08-01T10:06:38;98763.98;;;19.12;94.59
41706;BME280;27385;51.096;17.190;2023-08-01T10:09:13;98766.11;;;19.12;94.85
41706;BME280;27385;51.096;17.190;2023-08-01T10:11:45;98765.05;;;19.13;94.90
41706;BME280;27385;51.096;17.190;2023-08-01T10:14:16;98757.95;;;19.12;94.79
41706;BME280;27385;51.096;17.190;2023-08-01T10:16:48;98755.55;;;19.14;94.67
41706;BME280;27385;51.096;17.190;2023-08-01T10:19:20;98752.05;;;19.18;94.42
41706;BME280;27385;51.096;17.190;2023-08-01T10:21:52;98748.65;;;19.19;94.03
41706;BME280;27385;51.096;17.190;2023-08-01T10:24:25;98751.53;;;19.21;93.78
41706;BME280;27385;51.096;17.190;2023-08-01T10:26:56;98749.07;;;19.25;93.78
41706;BME280;27385;51.096;17.190;2023-08-01T10:29:37;98746.34;;;19.28;93.80
41706;BME280;27385;51.096;17.190;2023-08-01T10:32:09;98740.16;;;19.32;93.67
41706;BME280;27385;51.096;17.190;2023-08-01T10:34:40;98738.84;;;19.36;93.72
41706;BME280;27385;51.096;17.190;2023-08-01T10:37:21;98738.02;;;19.40;93.21
41706;BME280;27385;51.096;17.190;2023-08-01T10:39:59;98736.40;;;19.41;93.07
41706;BME280;27385;51.096;17.190;2023-08-01T10:42:41;98731.42;;;19.40;92.91
41706;BME280;27385;51.096;17.190;2023-08-01T10:45:23;98724.46;;;19.39;92.75
41706;BME280;27385;51.096;17.190;2023-08-01T10:48:05;98726.00;;;19.40;93.01
41706;BME280;27385;51.096;17.190;2023-08-01T10:50:36;98716.11;;;19.43;92.87
41706;BME280;27385;51.096;17.190;2023-08-01T10:53:09;98714.27;;;19.47;92.63
41706;BME280;27385;51.096;17.190;2023-08-01T10:55:45;98712.74;;;19.49;92.14
41706;BME280;27385;51.096;17.190;2023-08-01T10:58:16;98713.23;;;19.51;92.00
41706;BME280;27385;51.096;17.190;2023-08-01T11:00:56;98713.34;;;19.52;91.86
41706;BME280;27385;51.096;17.190;2023-08-01T11:03:36;98717.20;;;19.56;92.00
41706;BME280;27385;51.096;17.190;2023-08-01T11:06:07;98720.03;;;19.59;91.91
41706;BME280;27385;51.096;17.190;2023-08-01T11:08:40;98727.77;;;19.60;91.86
41706;BME280;27385;51.096;17.190;2023-08-01T11:11:14;98731.64;;;19.61;91.95
41706;BME280;27385;51.096;17.190;2023-08-01T11:13:52;98728.03;;;19.58;92.03
41706;BME280;27385;51.096;17.190;2023-08-01T11:16:26;98728.50;;;19.54;92.16
41706;BME280;27385;51.096;17.190;2023-08-01T11:18:57;98722.73;;;19.54;92.57
41706;BME280;27385;51.096;17.190;2023-08-01T11:21:28;98718.01;;;19.52;92.74
41706;BME280;27385;51.096;17.190;2023-08-01T11:24:00;98717.19;;;19.51;93.03
41706;BME280;27385;51.096;17.190;2023-08-01T11:26:36;98712.52;;;19.49;92.94
41706;BME280;27385;51.096;17.190;2023-08-01T11:29:10;98707.29;;;19.48;92.63
41706;BME280;27385;51.096;17.190;2023-08-01T11:31:52;98705.51;;;19.43;92.22
41706;BME280;27385;51.096;17.190;2023-08-01T11:34:24;98701.84;;;19.40;91.84
41706;BME280;27385;51.096;17.190;2023-08-01T11:36:55;98695.33;;;19.37;91.87
41706;BME280;27385;51.096;17.190;2023-08-01T11:39:26;98689.00;;;19.34;91.85
41706;BME280;27385;51.096;17.190;2023-08-01T11:41:57;98685.29;;;19.33;92.29
41706;BME280;27385;51.096;17.190;2023-08-01T11:44:28;98682.10;;;19.36;92.64
41706;BME280;27385;51.096;17.190;2023-08-01T11:46:59;98684.10;;;19.45;93.07
41706;BME280;27385;51.096;17.190;2023-08-01T11:49:31;98680.48;;;19.55;93.46
41706;BME280;27385;51.096;17.190;2023-08-01T11:52:02;98670.73;;;19.64;93.38
41706;BME280;27385;51.096;17.190;2023-08-01T11:54:42;98664.15;;;19.71;93.39
41706;BME280;27385;51.096;17.190;2023-08-01T11:57:16;98665.57;;;19.79;92.99
41706;BME280;27385;51.096;17.190;2023-08-01T11:59:51;98665.53;;;19.87;93.12
41706;BME280;27385;51.096;17.190;2023-08-01T12:02:26;98660.13;;;19.96;92.82
41706;BME280;27385;51.096;17.190;2023-08-01T12:04:59;98651.58;;;20.00;92.29
41706;BME280;27385;51.096;17.190;2023-08-01T12:07:30;98655.46;;;20.06;92.15
41706;BME280;27385;51.096;17.190;2023-08-01T12:10:01;98662.42;;;20.11;92.08
41706;BME280;27385;51.096;17.190;2023-08-01T12:12:32;98659.86;;;20.18;91.61
41706;BME280;27385;51.096;17.190;2023-08-01T12:15:14;98651.67;;;20.23;90.98
41706;BME280;27385;51.096;17.190;2023-08-01T12:17:45;98644.80;;;20.29;90.76
41706;BME280;27385;51.096;17.190;2023-08-01T12:20:16;98639.58;;;20.36;90.20
41706;BME280;27385;51.096;17.190;2023-08-01T12:22:47;98640.16;;;20.43;90.03
41706;BME280;27385;51.096;17.190;2023-08-01T12:25:18;98640.46;;;20.51;89.31
41706;BME280;27385;51.096;17.190;2023-08-01T12:27:49;98641.55;;;20.59;89.76
41706;BME280;27385;51.096;17.190;2023-08-01T12:30:20;98637.36;;;20.70;89.74
41706;BME280;27385;51.096;17.190;2023-08-01T12:32:51;98634.36;;;20.82;89.18
41706;BME280;27385;51.096;17.190;2023-08-01T12:35:22;98626.37;;;20.90;88.36
41706;BME280;27385;51.096;17.190;2023-08-01T12:37:53;98621.79;;;20.97;87.42
41706;BME280;27385;51.096;17.190;2023-08-01T12:40:24;98620.48;;;21.04;87.48
41706;BME280;27385;51.096;17.190;2023-08-01T12:42:55;98627.61;;;21.13;87.41
41706;BME280;27385;51.096;17.190;2023-08-01T12:45:27;98626.70;;;21.23;86.80
41706;BME280;27385;51.096;17.190;2023-08-01T12:47:57;98623.77;;;21.33;86.10
41706;BME280;27385;51.096;17.190;2023-08-01T12:50:28;98624.67;;;21.39;85.32
41706;BME280;27385;51.096;17.190;2023-08-01T12:52:59;98635.84;;;21.44;84.63
41706;BME280;27385;51.096;17.190;2023-08-01T12:55:30;98645.23;;;21.48;84.05
41706;BME280;27385;51.096;17.190;2023-08-01T12:58:01;98635.70;;;21.51;83.46
41706;BME280;27385;51.096;17.190;2023-08-01T13:00:32;98628.77;;;21.53;82.55
41706;BME280;27385;51.096;17.190;2023-08-01T13:03:06;98624.21;;;21.57;82.69
41706;BME280;27385;51.096;17.190;2023-08-01T13:05:38;98625.52;;;21.61;82.11
41706;BME280;27385;51.096;17.190;2023-08-01T13:08:10;98625.40;;;21.65;81.93
41706;BME280;27385;51.096;17.190;2023-08-01T13:10:41;98621.99;;;21.71;81.58
41706;BME280;27385;51.096;17.190;2023-08-01T13:13:14;98620.73;;;21.74;80.80